sensor_id;sensor_type;location;lat;lon;timestamp;pressure;altitude;pressure_sealevel;temperature;humidity
17230;BME280;8731;50.364;8.958;2023-05-09T00:04:03;100395.44;;;15.73;91.85
17230;BME280;8731;50.364;8.958;2023-05-09T00:08:25;100397.22;;;15.74;91.70
17230;BME280;8731;50.364;8.958;2023-05-09T00:12:49;100395.44;;;15.73;91.88
17230;BME280;8731;50.364;8.958;2023-05-09T00:17:11;100389.34;;;15.61;93.67
17230;BME280;8731;50.364;8.958;2023-05-09T00:21:35;100397.66;;;15.80;91.23
17230;BME280;8731;50.364;8.958;2023-05-09T00:25:57;100385.78;;;15.59;94.16
17230;BME280;8731;50.364;8.958;2023-05-09T00:30:21;100368.66;;;15.81;91.86
17230;BME280;8731;50.364;8.958;2023-05-09T00:34:44;100365.56;;;15.97;90.24
17230;BME280;8731;50.364;8.958;2023-05-09T00:39:06;100363.88;;;15.98;90.48
17230;BME280;8731;50.364;8.958;2023-05-09T00:43:29;100359.31;;;15.93;90.57
17230;BME280;8731;50.364;8.958;2023-05-09T00:47:54;100359.31;;;15.93;90.17
17230;BME280;8731;50.364;8.958;2023-05-09T00:52:16;100350.94;;;15.96;89.14
17230;BME280;8731;50.364;8.958;2023-05-09T00:56:42;100340.41;;;16.05;88.12
17230;BME280;8731;50.364;8.958;2023-05-09T01:01:05;100343.00;;;16.05;87.73
17230;BME280;8731;50.364;8.958;2023-05-09T01:05:37;100341.53;;;16.08;87.55
17230;BME280;8731;50.364;8.958;2023-05-09T01:10:11;100338.06;;;16.08;86.44
17230;BME280;8731;50.364;8.958;2023-05-09T01:14:47;100335.41;;;16.18;86.28
17230;BME280;8731;50.364;8.958;2023-05-09T01:19:26;100330.06;;;16.15;87.79
17230;BME280;8731;50.364;8.958;2023-05-09T01:24:37;100334.75;;;15.85;90.48
17230;BME280;8731;50.364;8.958;2023-05-09T01:29:33;100315.75;;;16.07;88.86
17230;BME280;8731;50.364;8.958;2023-05-09T01:34:00;100313.06;;;16.17;87.85
17230;BME280;8731;50.364;8.958;2023-05-09T01:38:25;100310.63;;;16.18;87.98
17230;BME280;8731;50.364;8.958;2023-05-09T01:42:51;100302.44;;;16.24;87.68
17230;BME280;8731;50.364;8.958;2023-05-09T01:47:20;100298.09;;;16.23;87.87
17230;BME280;8731;50.364;8.958;2023-05-09T01:51:43;100305.25;;;16.27;86.94
17230;BME280;8731;50.364;8.958;2023-05-09T01:56:08;100300.56;;;16.33;86.97
17230;BME280;8731;50.364;8.958;2023-05-09T02:00:33;100311.72;;;16.34;86.95
17230;BME280;8731;50.364;8.958;2023-05-09T02:04:57;100302.56;;;16.25;87.85
17230;BME280;8731;50.364;8.958;2023-05-09T02:09:21;100302.38;;;16.11;89.33
17230;BME280;8731;50.364;8.958;2023-05-09T02:13:43;100292.75;;;16.20;88.12
17230;BME280;8731;50.364;8.958;2023-05-09T02:18:06;100291.84;;;16.19;88.18
17230;BME280;8731;50.364;8.958;2023-05-09T02:22:29;100287.50;;;16.18;88.47
17230;BME280;8731;50.364;8.958;2023-05-09T02:26:53;100283.59;;;16.00;90.21
17230;BME280;8731;50.364;8.958;2023-05-09T02:31:18;100280.03;;;16.10;89.38
17230;BME280;8731;50.364;8.958;2023-05-09T02:35:44;100279.91;;;15.96;90.72
17230;BME280;8731;50.364;8.958;2023-05-09T02:40:10;100282.91;;;16.03;88.79
17230;BME280;8731;50.364;8.958;2023-05-09T02:44:33;100278.91;;;15.94;90.70
17230;BME280;8731;50.364;8.958;2023-05-09T02:48:56;100264.81;;;15.78;92.46
17230;BME280;8731;50.364;8.958;2023-05-09T02:53:19;100261.38;;;15.77;93.13
17230;BME280;8731;50.364;8.958;2023-05-09T02:57:43;100257.94;;;15.88;89.91
17230;BME280;8731;50.364;8.958;2023-05-09T03:02:06;100247.53;;;16.10;89.51
17230;BME280;8731;50.364;8.958;2023-05-09T03:06:29;100236.00;;;16.05;90.07
17230;BME280;8731;50.364;8.958;2023-05-09T03:10:51;100237.78;;;16.18;89.44
17230;BME280;8731;50.364;8.958;2023-05-09T03:15:16;100235.13;;;16.16;89.74
17230;BME280;8731;50.364;8.958;2023-05-09T03:19:40;100239.78;;;16.22;88.92
17230;BME280;8731;50.364;8.958;2023-05-09T03:24:03;100229.50;;;16.22;88.42
17230;BME280;8731;50.364;8.958;2023-05-09T03:28:27;100225.63;;;16.15;90.10
17230;BME280;8731;50.364;8.958;2023-05-09T03:32:55;100217.63;;;15.87;92.91
17230;BME280;8731;50.364;8.958;2023-05-09T03:37:17;100215.03;;;16.11;90.43
17230;BME280;8731;50.364;8.958;2023-05-09T03:41:40;100230.34;;;15.98;93.53
17230;BME280;8731;50.364;8.958;2023-05-09T03:46:03;100223.72;;;16.01;92.28
17230;BME280;8731;50.364;8.958;2023-05-09T03:50:28;100231.22;;;16.10;91.05
17230;BME280;8731;50.364;8.958;2023-05-09T03:54:52;100235.78;;;16.14;90.45
17230;BME280;8731;50.364;8.958;2023-05-09T03:59:14;100234.00;;;16.13;89.00
17230;BME280;8731;50.364;8.958;2023-05-09T04:03:37;100235.81;;;15.90;92.98
17230;BME280;8731;50.364;8.958;2023-05-09T04:08:01;100228.91;;;15.89;93.02
17230;BME280;8731;50.364;8.958;2023-05-09T04:12:25;100217.72;;;15.77;95.46
17230;BME280;8731;50.364;8.958;2023-05-09T04:16:48;100222.31;;;15.70;96.21
17230;BME280;8731;50.364;8.958;2023-05-09T04:21:10;100218.94;;;15.82;94.18
17230;BME280;8731;50.364;8.958;2023-05-09T04:25:35;100211.50;;;15.85;94.27
17230;BME280;8731;50.364;8.958;2023-05-09T04:29:58;100208.53;;;16.04;92.17
17230;BME280;8731;50.364;8.958;2023-05-09T04:34:21;100208.53;;;16.04;92.61
17230;BME280;8731;50.364;8.958;2023-05-09T04:38:44;100208.66;;;16.17;90.87
17230;BME280;8731;50.364;8.958;2023-05-09T04:43:11;100205.59;;;16.23;90.17
17230;BME280;8731;50.364;8.958;2023-05-09T04:47:34;100211.16;;;16.29;89.78
17230;BME280;8731;50.364;8.958;2023-05-09T04:51:56;100213.31;;;16.35;88.90
17230;BME280;8731;50.364;8.958;2023-05-09T04:56:19;100214.63;;;16.41;88.39
17230;BME280;8731;50.364;8.958;2023-05-09T05:00:44;100216.78;;;16.23;88.71
17230;BME280;8731;50.364;8.958;2023-05-09T05:05:08;100216.31;;;16.29;87.47
17230;BME280;8731;50.364;8.958;2023-05-09T05:09:32;100216.50;;;16.44;85.92
17230;BME280;8731;50.364;8.958;2023-05-09T05:13:55;100206.31;;;16.57;86.23
17230;BME280;8731;50.364;8.958;2023-05-09T05:18:19;100204.66;;;16.46;86.76
17230;BME280;8731;50.364;8.958;2023-05-09T05:22:42;100197.69;;;16.56;86.91
17230;BME280;8731;50.364;8.958;2023-05-09T05:27:05;100186.69;;;16.71;87.00
17230;BME280;8731;50.364;8.958;2023-05-09T05:31:28;100171.56;;;17.00;84.97
17230;BME280;8731;50.364;8.958;2023-05-09T05:35:52;100182.81;;;17.27;83.54
17230;BME280;8731;50.364;8.958;2023-05-09T05:40:15;100170.34;;;17.86;81.27
17230;BME280;8731;50.364;8.958;2023-05-09T05:44:41;100164.06;;;18.22;77.42
17230;BME280;8731;50.364;8.958;2023-05-09T05:49:04;100171.81;;;18.09;78.09
17230;BME280;8731;50.364;8.958;2023-05-09T05:53:29;100165.25;;;18.42;77.09
17230;BME280;8731;50.364;8.958;2023-05-09T05:57:51;100165.34;;;18.16;76.31
17230;BME280;8731;50.364;8.958;2023-05-09T06:02:14;100161.38;;;18.49;76.74
17230;BME280;8731;50.364;8.958;2023-05-09T06:06:37;100157.78;;;18.32;76.89
17230;BME280;8731;50.364;8.958;2023-05-09T06:11:01;100165.59;;;17.92;75.98
17230;BME280;8731;50.364;8.958;2023-05-09T06:15:26;100160.66;;;17.82;76.66
17230;BME280;8731;50.364;8.958;2023-05-09T06:19:49;100153.78;;;18.09;76.00
17230;BME280;8731;50.364;8.958;2023-05-09T06:24:12;100149.03;;;17.49;75.80
17230;BME280;8731;50.364;8.958;2023-05-09T06:28:35;100153.22;;;17.73;76.93
17230;BME280;8731;50.364;8.958;2023-05-09T06:32:58;100155.31;;;17.53;75.71
17230;BME280;8731;50.364;8.958;2023-05-09T06:37:20;100150.53;;;17.59;75.92
17230;BME280;8731;50.364;8.958;2023-05-09T06:41:43;100152.81;;;17.28;75.66
17230;BME280;8731;50.364;8.958;2023-05-09T06:46:06;100150.75;;;17.88;73.79
17230;BME280;8731;50.364;8.958;2023-05-09T06:50:29;100136.94;;;18.99;71.39
17230;BME280;8731;50.364;8.958;2023-05-09T06:54:51;100130.63;;;19.24;70.59
17230;BME280;8731;50.364;8.958;2023-05-09T06:59:14;100118.63;;;20.17;67.95
17230;BME280;8731;50.364;8.958;2023-05-09T07:03:37;100128.13;;;19.40;66.89
17230;BME280;8731;50.364;8.958;2023-05-09T07:08:00;100121.34;;;19.27;66.54
17230;BME280;8731;50.364;8.958;2023-05-09T07:12:23;100107.97;;;19.49;66.13
17230;BME280;8731;50.364;8.958;2023-05-09T07:16:45;100104.09;;;20.19;64.53
17230;BME280;8731;50.364;8.958;2023-05-09T07:21:09;100097.00;;;19.84;65.09
17230;BME280;8731;50.364;8.958;2023-05-09T07:25:32;100101.06;;;20.59;62.90
17230;BME280;8731;50.364;8.958;2023-05-09T07:29:54;100091.31;;;21.23;63.69
17230;BME280;8731;50.364;8.958;2023-05-09T07:34:16;100088.97;;;21.45;62.44
17230;BME280;8731;50.364;8.958;2023-05-09T07:38:41;100081.69;;;21.21;61.23
17230;BME280;8731;50.364;8.958;2023-05-09T07:43:03;100073.66;;;21.87;60.41
17230;BME280;8731;50.364;8.958;2023-05-09T07:47:25;100079.59;;;21.30;60.30
17230;BME280;8731;50.364;8.958;2023-05-09T07:51:48;100074.97;;;21.97;59.21
17230;BME280;8731;50.364;8.958;2023-05-09T07:56:11;100058.34;;;22.11;60.21
17230;BME280;8731;50.364;8.958;2023-05-09T08:00:34;100049.34;;;22.22;58.02
17230;BME280;8731;50.364;8.958;2023-05-09T08:04:56;100050.38;;;22.07;57.83
17230;BME280;8731;50.364;8.958;2023-05-09T08:09:19;100059.94;;;21.90;58.34
17230;BME280;8731;50.364;8.958;2023-05-09T08:13:42;100046.28;;;21.74;58.56
17230;BME280;8731;50.364;8.958;2023-05-09T08:18:05;100042.19;;;21.42;59.78
17230;BME280;8731;50.364;8.958;2023-05-09T08:22:27;100029.16;;;20.88;60.94
17230;BME280;8731;50.364;8.958;2023-05-09T08:26:50;100012.69;;;22.15;59.46
17230;BME280;8731;50.364;8.958;2023-05-09T08:31:14;100022.75;;;21.33;61.97
17230;BME280;8731;50.364;8.958;2023-05-09T08:35:36;100011.63;;;21.72;58.81
17230;BME280;8731;50.364;8.958;2023-05-09T08:39:59;100006.66;;;23.18;55.93
17230;BME280;8731;50.364;8.958;2023-05-09T08:44:21;100010.22;;;22.37;58.83
17230;BME280;8731;50.364;8.958;2023-05-09T08:48:45;100008.69;;;21.65;59.35
17230;BME280;8731;50.364;8.958;2023-05-09T08:53:07;100006.66;;;21.04;61.53
17230;BME280;8731;50.364;8.958;2023-05-09T08:57:31;99998.25;;;21.26;62.05
17230;BME280;8731;50.364;8.958;2023-05-09T09:01:56;99996.28;;;21.22;60.82
17230;BME280;8731;50.364;8.958;2023-05-09T09:06:22;99999.72;;;20.68;62.74
17230;BME280;8731;50.364;8.958;2023-05-09T09:10:45;99987.63;;;20.34;62.56
17230;BME280;8731;50.364;8.958;2023-05-09T09:15:14;99980.09;;;20.55;63.07
17230;BME280;8731;50.364;8.958;2023-05-09T09:19:39;99970.81;;;21.12;62.12
17230;BME280;8731;50.364;8.958;2023-05-09T09:24:07;99962.88;;;21.83;59.89
17230;BME280;8731;50.364;8.958;2023-05-09T09:28:31;99962.56;;;21.38;59.44
17230;BME280;8731;50.364;8.958;2023-05-09T09:32:53;99957.63;;;21.62;60.02
17230;BME280;8731;50.364;8.958;2023-05-09T09:37:22;99940.38;;;21.82;59.25
17230;BME280;8731;50.364;8.958;2023-05-09T09:41:47;99939.31;;;21.40;59.64
17230;BME280;8731;50.364;8.958;2023-05-09T09:46:10;99928.28;;;21.63;60.46
17230;BME280;8731;50.364;8.958;2023-05-09T09:50:35;99929.44;;;21.31;59.99
17230;BME280;8731;50.364;8.958;2023-05-09T09:54:58;99934.34;;;21.07;61.11
17230;BME280;8731;50.364;8.958;2023-05-09T09:59:25;99917.44;;;21.72;61.04
17230;BME280;8731;50.364;8.958;2023-05-09T10:03:47;99915.19;;;21.23;63.25
17230;BME280;8731;50.364;8.958;2023-05-09T10:08:10;99902.50;;;21.47;61.90
17230;BME280;8731;50.364;8.958;2023-05-09T10:12:32;99891.13;;;21.63;62.10
17230;BME280;8731;50.364;8.958;2023-05-09T10:16:59;99901.13;;;21.74;62.41
17230;BME280;8731;50.364;8.958;2023-05-09T10:21:23;99896.03;;;21.37;62.53
17230;BME280;8731;50.364;8.958;2023-05-09T10:25:52;99886.06;;;21.66;63.15
17230;BME280;8731;50.364;8.958;2023-05-09T10:30:22;99877.47;;;21.67;62.67
17230;BME280;8731;50.364;8.958;2023-05-09T10:35:04;99864.63;;;21.89;62.52
17230;BME280;8731;50.364;8.958;2023-05-09T10:39:29;99858.25;;;21.81;62.02
17230;BME280;8731;50.364;8.958;2023-05-09T10:43:54;99852.84;;;21.97;63.16
17230;BME280;8731;50.364;8.958;2023-05-09T10:48:17;99844.41;;;21.81;62.88
17230;BME280;8731;50.364;8.958;2023-05-09T10:53:06;99838.31;;;21.80;62.92
17230;BME280;8731;50.364;8.958;2023-05-09T10:57:38;99827.16;;;21.62;62.90
17230;BME280;8731;50.364;8.958;2023-05-09T11:02:00;99825.16;;;21.96;63.02
17230;BME280;8731;50.364;8.958;2023-05-09T11:06:43;99816.94;;;21.86;63.34
17230;BME280;8731;50.364;8.958;2023-05-09T11:11:22;99809.16;;;22.05;62.18
17230;BME280;8731;50.364;8.958;2023-05-09T11:16:08;99805.22;;;22.15;61.66
17230;BME280;8731;50.364;8.958;2023-05-09T11:20:33;99794.94;;;22.18;61.22
17230;BME280;8731;50.364;8.958;2023-05-09T11:25:02;99791.66;;;22.22;61.07
17230;BME280;8731;50.364;8.958;2023-05-09T11:29:28;99780.53;;;22.03;61.51
17230;BME280;8731;50.364;8.958;2023-05-09T11:34:04;99777.69;;;22.18;61.83
17230;BME280;8731;50.364;8.958;2023-05-09T11:38:39;99769.25;;;22.24;62.09
17230;BME280;8731;50.364;8.958;2023-05-09T11:43:02;99759.91;;;22.27;61.58
17230;BME280;8731;50.364;8.958;2023-05-09T11:47:26;99761.13;;;22.15;60.62
17230;BME280;8731;50.364;8.958;2023-05-09T11:51:50;99758.53;;;22.15;60.06
17230;BME280;8731;50.364;8.958;2023-05-09T11:56:13;99754.47;;;22.21;59.58
17230;BME280;8731;50.364;8.958;2023-05-09T12:00:42;99737.19;;;22.22;60.50
17230;BME280;8731;50.364;8.958;2023-05-09T12:05:08;99734.25;;;22.57;60.13
17230;BME280;8731;50.364;8.958;2023-05-09T12:09:33;99723.59;;;22.50;59.90
17230;BME280;8731;50.364;8.958;2023-05-09T12:13:58;99719.09;;;22.23;59.52
17230;BME280;8731;50.364;8.958;2023-05-09T12:18:20;99717.75;;;22.11;60.42
17230;BME280;8731;50.364;8.958;2023-05-09T12:22:51;99708.06;;;22.51;58.40
17230;BME280;8731;50.364;8.958;2023-05-09T12:27:15;99695.56;;;23.11;57.55
17230;BME280;8731;50.364;8.958;2023-05-09T12:31:38;99687.34;;;22.99;57.76
17230;BME280;8731;50.364;8.958;2023-05-09T12:36:03;99678.28;;;22.88;57.46
17230;BME280;8731;50.364;8.958;2023-05-09T12:40:29;99676.13;;;22.76;58.40
17230;BME280;8731;50.364;8.958;2023-05-09T12:44:51;99662.00;;;23.17;56.97
17230;BME280;8731;50.364;8.958;2023-05-09T12:49:18;99653.00;;;23.58;55.87
17230;BME280;8731;50.364;8.958;2023-05-09T12:53:41;99643.31;;;23.54;55.91
17230;BME280;8731;50.364;8.958;2023-05-09T12:58:05;99636.19;;;23.74;54.26
17230;BME280;8731;50.364;8.958;2023-05-09T13:02:32;99629.63;;;23.58;55.35
17230;BME280;8731;50.364;8.958;2023-05-09T13:06:56;99623.13;;;23.46;55.71
17230;BME280;8731;50.364;8.958;2023-05-09T13:11:19;99608.41;;;23.19;52.72
17230;BME280;8731;50.364;8.958;2023-05-09T13:15:43;99598.22;;;23.25;52.98
17230;BME280;8731;50.364;8.958;2023-05-09T13:20:07;99592.34;;;23.58;51.61
17230;BME280;8731;50.364;8.958;2023-05-09T13:24:29;99580.25;;;23.06;50.91
17230;BME280;8731;50.364;8.958;2023-05-09T13:28:52;99577.59;;;23.57;51.91
17230;BME280;8731;50.364;8.958;2023-05-09T13:33:16;99559.66;;;23.39;49.98
17230;BME280;8731;50.364;8.958;2023-05-09T13:37:38;99549.28;;;23.95;51.02
17230;BME280;8731;50.364;8.958;2023-05-09T13:42:01;99556.31;;;23.16;50.51
17230;BME280;8731;50.364;8.958;2023-05-09T13:46:24;99548.00;;;23.26;49.52
17230;BME280;8731;50.364;8.958;2023-05-09T13:50:49;99542.84;;;23.55;50.25
17230;BME280;8731;50.364;8.958;2023-05-09T13:55:11;99531.72;;;23.32;49.05
17230;BME280;8731;50.364;8.958;2023-05-09T13:59:34;99527.66;;;23.13;50.11
17230;BME280;8731;50.364;8.958;2023-05-09T14:03:56;99523.56;;;22.94;49.80
17230;BME280;8731;50.364;8.958;2023-05-09T14:08:20;99512.31;;;23.76;49.98
17230;BME280;8731;50.364;8.958;2023-05-09T14:12:43;99496.50;;;23.99;49.13
17230;BME280;8731;50.364;8.958;2023-05-09T14:17:06;99487.50;;;23.87;49.27
17230;BME280;8731;50.364;8.958;2023-05-09T14:21:29;99486.16;;;23.70;49.34
17230;BME280;8731;50.364;8.958;2023-05-09T14:25:52;99472.88;;;23.61;48.59
17230;BME280;8731;50.364;8.958;2023-05-09T14:30:15;99459.38;;;23.44;48.39
17230;BME280;8731;50.364;8.958;2023-05-09T14:34:38;99463.75;;;23.18;48.88
17230;BME280;8731;50.364;8.958;2023-05-09T14:39:00;99457.47;;;23.12;48.55
17230;BME280;8731;50.364;8.958;2023-05-09T14:43:24;99440.91;;;23.37;49.78
17230;BME280;8731;50.364;8.958;2023-05-09T14:47:47;99433.84;;;23.03;47.96
17230;BME280;8731;50.364;8.958;2023-05-09T14:52:10;99430.50;;;23.07;48.83
17230;BME280;8731;50.364;8.958;2023-05-09T14:56:33;99424.03;;;22.94;49.03
17230;BME280;8731;50.364;8.958;2023-05-09T15:00:57;99424.69;;;23.44;49.14
17230;BME280;8731;50.364;8.958;2023-05-09T15:05:20;99409.94;;;23.43;49.47
17230;BME280;8731;50.364;8.958;2023-05-09T15:09:43;99397.84;;;23.43;48.98
17230;BME280;8731;50.364;8.958;2023-05-09T15:14:05;99395.41;;;23.49;49.49
17230;BME280;8731;50.364;8.958;2023-05-09T15:18:29;99396.84;;;23.40;48.33
17230;BME280;8731;50.364;8.958;2023-05-09T15:22:53;99386.72;;;23.49;49.23
17230;BME280;8731;50.364;8.958;2023-05-09T15:27:15;99373.88;;;23.23;47.77
17230;BME280;8731;50.364;8.958;2023-05-09T15:31:37;99376.56;;;23.26;48.29
17230;BME280;8731;50.364;8.958;2023-05-09T15:36:01;99377.34;;;23.54;49.90
17230;BME280;8731;50.364;8.958;2023-05-09T15:40:24;99368.81;;;23.58;51.81
17230;BME280;8731;50.364;8.958;2023-05-09T15:44:47;99362.84;;;23.62;51.25
17230;BME280;8731;50.364;8.958;2023-05-09T15:49:10;99363.09;;;23.70;55.17
17230;BME280;8731;50.364;8.958;2023-05-09T15:53:37;99358.38;;;23.56;53.61
17230;BME280;8731;50.364;8.958;2023-05-09T15:58:00;99357.69;;;23.64;54.64
17230;BME280;8731;50.364;8.958;2023-05-09T16:02:23;99353.75;;;23.46;58.24
17230;BME280;8731;50.364;8.958;2023-05-09T16:06:45;99348.47;;;23.43;58.91
17230;BME280;8731;50.364;8.958;2023-05-09T16:11:09;99341.94;;;23.27;59.94
17230;BME280;8731;50.364;8.958;2023-05-09T16:15:32;99346.22;;;23.25;60.02
17230;BME280;8731;50.364;8.958;2023-05-09T16:19:54;99330.19;;;23.10;60.83
17230;BME280;8731;50.364;8.958;2023-05-09T16:24:17;99340.69;;;23.15;61.24
17230;BME280;8731;50.364;8.958;2023-05-09T16:28:41;99337.38;;;23.19;60.49
17230;BME280;8731;50.364;8.958;2023-05-09T16:33:03;99335.66;;;22.91;61.19
17230;BME280;8731;50.364;8.958;2023-05-09T16:37:26;99331.03;;;22.27;63.68
17230;BME280;8731;50.364;8.958;2023-05-09T16:41:49;99324.94;;;22.25;64.45
17230;BME280;8731;50.364;8.958;2023-05-09T16:46:15;99331.97;;;22.29;64.29
17230;BME280;8731;50.364;8.958;2023-05-09T16:50:37;99322.44;;;22.02;64.98
17230;BME280;8731;50.364;8.958;2023-05-09T16:55:02;99317.19;;;22.01;66.38
17230;BME280;8731;50.364;8.958;2023-05-09T16:59:25;99311.53;;;21.87;67.37
17230;BME280;8731;50.364;8.958;2023-05-09T17:03:49;99304.63;;;21.88;66.93
17230;BME280;8731;50.364;8.958;2023-05-09T17:08:12;99300.44;;;21.91;66.67
17230;BME280;8731;50.364;8.958;2023-05-09T17:12:34;99300.38;;;21.90;66.77
17230;BME280;8731;50.364;8.958;2023-05-09T17:16:58;99290.50;;;21.78;67.61
17230;BME280;8731;50.364;8.958;2023-05-09T17:21:21;99294.22;;;21.86;67.00
17230;BME280;8731;50.364;8.958;2023-05-09T17:25:44;99294.31;;;21.64;67.29
17230;BME280;8731;50.364;8.958;2023-05-09T17:30:09;99284.25;;;21.48;67.93
17230;BME280;8731;50.364;8.958;2023-05-09T17:34:32;99283.59;;;21.29;67.54
17230;BME280;8731;50.364;8.958;2023-05-09T17:38:56;99289.50;;;21.03;68.70
17230;BME280;8731;50.364;8.958;2023-05-09T17:43:30;99299.53;;;20.94;69.86
17230;BME280;8731;50.364;8.958;2023-05-09T17:47:52;99306.94;;;21.07;69.36
17230;BME280;8731;50.364;8.958;2023-05-09T17:52:14;99305.06;;;20.58;70.24
17230;BME280;8731;50.364;8.958;2023-05-09T17:56:39;99300.59;;;20.76;71.96
17230;BME280;8731;50.364;8.958;2023-05-09T18:01:01;99300.19;;;20.66;71.49
17230;BME280;8731;50.364;8.958;2023-05-09T18:05:24;99302.88;;;20.46;71.97
17230;BME280;8731;50.364;8.958;2023-05-09T18:09:47;99302.56;;;20.60;72.07
17230;BME280;8731;50.364;8.958;2023-05-09T18:14:11;99308.00;;;20.45;72.24
17230;BME280;8731;50.364;8.958;2023-05-09T18:18:34;99314.41;;;20.34;72.32
17230;BME280;8731;50.364;8.958;2023-05-09T18:22:56;99315.56;;;20.19;74.42
17230;BME280;8731;50.364;8.958;2023-05-09T18:27:18;99300.44;;;20.08;75.88
17230;BME280;8731;50.364;8.958;2023-05-09T18:31:42;99282.09;;;20.22;74.86
17230;BME280;8731;50.364;8.958;2023-05-09T18:36:06;99259.25;;;19.69;79.09
17230;BME280;8731;50.364;8.958;2023-05-09T18:40:30;99260.03;;;19.28;81.58
17230;BME280;8731;50.364;8.958;2023-05-09T18:44:52;99298.66;;;18.88;82.95
17230;BME280;8731;50.364;8.958;2023-05-09T18:49:16;99301.19;;;19.25;78.87
17230;BME280;8731;50.364;8.958;2023-05-09T18:53:39;99304.97;;;19.33;78.67
17230;BME280;8731;50.364;8.958;2023-05-09T18:58:02;99306.00;;;18.98;81.97
17230;BME280;8731;50.364;8.958;2023-05-09T19:02:24;99314.00;;;18.85;83.36
17230;BME280;8731;50.364;8.958;2023-05-09T19:06:48;99345.09;;;18.88;82.75
17230;BME280;8731;50.364;8.958;2023-05-09T19:11:11;99357.53;;;19.16;81.29
17230;BME280;8731;50.364;8.958;2023-05-09T19:15:33;99355.91;;;18.98;83.17
17230;BME280;8731;50.364;8.958;2023-05-09T19:19:56;99358.28;;;19.13;82.99
17230;BME280;8731;50.364;8.958;2023-05-09T19:24:20;99359.25;;;18.96;81.19
17230;BME280;8731;50.364;8.958;2023-05-09T19:28:43;99362.97;;;19.02;83.15
17230;BME280;8731;50.364;8.958;2023-05-09T19:33:06;99356.66;;;19.15;83.49
17230;BME280;8731;50.364;8.958;2023-05-09T19:37:29;99359.59;;;19.04;84.83
17230;BME280;8731;50.364;8.958;2023-05-09T19:41:53;99355.78;;;18.95;85.39
17230;BME280;8731;50.364;8.958;2023-05-09T19:46:15;99353.25;;;19.16;84.14
17230;BME280;8731;50.364;8.958;2023-05-09T19:50:38;99351.16;;;19.08;83.96
17230;BME280;8731;50.364;8.958;2023-05-09T19:55:00;99352.44;;;18.98;85.40
17230;BME280;8731;50.364;8.958;2023-05-09T19:59:24;99352.56;;;18.64;89.99
17230;BME280;8731;50.364;8.958;2023-05-09T20:03:47;99351.44;;;18.41;91.38
17230;BME280;8731;50.364;8.958;2023-05-09T20:08:11;99343.13;;;18.29;93.43
17230;BME280;8731;50.364;8.958;2023-05-09T20:12:33;99349.41;;;18.00;95.96
17230;BME280;8731;50.364;8.958;2023-05-09T20:16:57;99338.78;;;18.28;93.43
17230;BME280;8731;50.364;8.958;2023-05-09T20:21:19;99329.19;;;18.43;90.91
17230;BME280;8731;50.364;8.958;2023-05-09T20:25:42;99328.72;;;18.16;92.88
17230;BME280;8731;50.364;8.958;2023-05-09T20:30:05;99332.06;;;18.14;92.71
17230;BME280;8731;50.364;8.958;2023-05-09T20:34:30;99324.69;;;18.21;92.39
17230;BME280;8731;50.364;8.958;2023-05-09T20:38:52;99325.19;;;18.14;89.67
17230;BME280;8731;50.364;8.958;2023-05-09T20:43:15;99333.75;;;18.13;91.77
17230;BME280;8731;50.364;8.958;2023-05-09T20:47:38;99326.47;;;18.22;91.09
17230;BME280;8731;50.364;8.958;2023-05-09T20:52:02;99324.63;;;18.02;90.37
17230;BME280;8731;50.364;8.958;2023-05-09T20:56:25;99326.69;;;18.09;91.87
17230;BME280;8731;50.364;8.958;2023-05-09T21:00:48;99322.53;;;17.95;91.31
17230;BME280;8731;50.364;8.958;2023-05-09T21:05:10;99318.84;;;17.90;92.05
17230;BME280;8731;50.364;8.958;2023-05-09T21:09:34;99312.16;;;17.93;90.39
17230;BME280;8731;50.364;8.958;2023-05-09T21:13:57;99314.81;;;17.95;90.00
17230;BME280;8731;50.364;8.958;2023-05-09T21:18:19;99312.16;;;17.93;91.69
17230;BME280;8731;50.364;8.958;2023-05-09T21:22:42;99316.88;;;17.68;91.61
17230;BME280;8731;50.364;8.958;2023-05-09T21:27:05;99300.16;;;17.43;89.38
17230;BME280;8731;50.364;8.958;2023-05-09T21:31:28;99299.56;;;17.65;92.26
17230;BME280;8731;50.364;8.958;2023-05-09T21:35:50;99302.41;;;17.70;93.26
17230;BME280;8731;50.364;8.958;2023-05-09T21:40:13;99303.47;;;17.41;93.66
17230;BME280;8731;50.364;8.958;2023-05-09T21:44:37;99299.91;;;17.55;93.68
17230;BME280;8731;50.364;8.958;2023-05-09T21:48:59;99294.53;;;17.02;96.10
17230;BME280;8731;50.364;8.958;2023-05-09T21:53:22;99294.00;;;17.07;94.69
17230;BME280;8731;50.364;8.958;2023-05-09T21:57:44;99301.97;;;17.12;92.19
17230;BME280;8731;50.364;8.958;2023-05-09T22:02:08;99290.88;;;17.29;93.88
17230;BME280;8731;50.364;8.958;2023-05-09T22:06:31;99288.69;;;17.04;95.19
17230;BME280;8731;50.364;8.958;2023-05-09T22:10:54;99285.88;;;17.16;95.52
17230;BME280;8731;50.364;8.958;2023-05-09T22:15:16;99288.19;;;16.95;95.12
17230;BME280;8731;50.364;8.958;2023-05-09T22:19:40;99284.34;;;17.03;96.78
17230;BME280;8731;50.364;8.958;2023-05-09T22:24:04;99284.31;;;16.71;96.84
17230;BME280;8731;50.364;8.958;2023-05-09T22:28:27;99277.25;;;16.67;95.46
17230;BME280;8731;50.364;8.958;2023-05-09T22:32:49;99271.84;;;16.62;96.24
17230;BME280;8731;50.364;8.958;2023-05-09T22:37:13;99284.75;;;16.64;97.94
17230;BME280;8731;50.364;8.958;2023-05-09T22:41:39;99277.06;;;16.64;98.76
17230;BME280;8731;50.364;8.958;2023-05-09T22:46:02;99269.78;;;16.71;99.02
17230;BME280;8731;50.364;8.958;2023-05-09T22:50:24;99275.94;;;16.58;98.65
17230;BME280;8731;50.364;8.958;2023-05-09T22:54:48;99278.13;;;16.52;99.90
17230;BME280;8731;50.364;8.958;2023-05-09T22:59:10;99270.44;;;16.52;98.02
17230;BME280;8731;50.364;8.958;2023-05-09T23:03:35;99269.94;;;16.43;100.00
17230;BME280;8731;50.364;8.958;2023-05-09T23:07:57;99270.03;;;16.45;98.82
17230;BME280;8731;50.364;8.958;2023-05-09T23:12:21;99264.97;;;16.46;99.67
17230;BME280;8731;50.364;8.958;2023-05-09T23:16:44;99266.81;;;16.49;100.00
17230;BME280;8731;50.364;8.958;2023-05-09T23:21:06;99261.75;;;16.50;97.60
17230;BME280;8731;50.364;8.958;2023-05-09T23:25:29;99260.00;;;16.49;96.89
17230;BME280;8731;50.364;8.958;2023-05-09T23:29:53;99257.19;;;16.45;98.35
17230;BME280;8731;50.364;8.958;2023-05-09T23:34:16;99251.16;;;16.44;98.18